createdAt,value
2019-02-27T00:01:19.054Z,4.75
2019-02-27T00:03:47.514Z,4.66
2019-02-27T00:06:16.087Z,4.51
2019-02-27T00:08:44.594Z,4.53
2019-02-27T00:11:13.045Z,4.67
2019-02-27T00:13:41.443Z,4.46
2019-02-27T00:16:11.136Z,4.39
2019-02-27T00:18:40.118Z,4.42
2019-02-27T00:21:10.985Z,4.37
2019-02-27T00:23:38.800Z,4.34
2019-02-27T00:26:08.970Z,4.33
2019-02-27T00:28:37.341Z,4.50
2019-02-27T00:31:05.818Z,3.49
2019-02-27T00:33:34.194Z,3.64
2019-02-27T00:36:02.661Z,3.74
2019-02-27T00:38:31.038Z,3.68
2019-02-27T00:40:59.439Z,3.53
2019-02-27T00:43:28.395Z,3.38
2019-02-27T00:45:57.460Z,3.39
2019-02-27T00:48:26.690Z,3.49
2019-02-27T00:50:55.340Z,3.66
2019-02-27T00:53:24.556Z,3.58
2019-02-27T00:55:53.541Z,3.65
2019-02-27T00:58:21.975Z,3.70
2019-02-27T01:00:50.637Z,3.79
2019-02-27T01:03:18.997Z,3.74
2019-02-27T01:05:47.527Z,3.78
2019-02-27T01:08:15.962Z,3.37
2019-02-27T01:10:45.295Z,3.30
2019-02-27T01:13:14.227Z,3.39
2019-02-27T01:15:44.663Z,3.24
2019-02-27T01:18:12.724Z,3.12
2019-02-27T01:20:45.657Z,3.07
2019-02-27T01:23:11.630Z,3.24
2019-02-27T01:25:40.230Z,3.30
2019-02-27T01:28:10.850Z,3.47
2019-02-27T01:30:38.874Z,3.45
2019-02-27T01:33:07.375Z,3.40
2019-02-27T01:35:35.776Z,3.15
2019-02-27T01:38:05.390Z,3.23
2019-02-27T01:40:34.428Z,3.25
2019-02-27T01:43:05.550Z,3.12
2019-02-27T01:45:32.913Z,2.86
2019-02-27T01:48:01.282Z,2.52
2019-02-27T01:50:32.290Z,2.49
2019-02-27T01:53:00.745Z,2.58
2019-02-27T01:55:29.185Z,2.88
2019-02-27T01:57:57.594Z,2.77
2019-02-27T02:00:26.025Z,2.89
2019-02-27T02:02:54.493Z,2.71
2019-02-27T02:05:26.300Z,2.54
2019-02-27T02:07:53.112Z,2.70
2019-02-27T02:10:21.614Z,2.77
2019-02-27T02:13:04.523Z,3.01
2019-02-27T02:15:38.837Z,3.00
2019-02-27T02:18:30.254Z,2.89
2019-02-27T02:21:07.592Z,2.94
2019-02-27T02:24:09.627Z,2.56
2019-02-27T02:26:50.363Z,2.64
2019-02-27T02:29:33.531Z,2.61
2019-02-27T02:32:16.826Z,2.84
2019-02-27T02:34:53.258Z,2.95
2019-02-27T02:37:24.837Z,2.19
2019-02-27T02:40:02.196Z,2.08
2019-02-27T02:43:07.059Z,2.39
2019-02-27T02:45:46.993Z,2.08
2019-02-27T02:48:44.347Z,2.51
2019-02-27T02:51:40.280Z,2.50
2019-02-27T02:54:11.856Z,2.87
2019-02-27T02:56:43.413Z,2.82
2019-02-27T02:59:48.267Z,2.97
2019-02-27T03:02:34.532Z,2.83
2019-02-27T03:05:25.603Z,2.99
2019-02-27T03:08:06.174Z,3.06
2019-02-27T03:10:46.704Z,2.55
2019-02-27T03:13:52.708Z,2.24
2019-02-27T03:16:41.539Z,2.57
2019-02-27T03:19:41.458Z,2.59
2019-02-27T03:22:41.628Z,2.73
2019-02-27T03:25:31.214Z,2.62
2019-02-27T03:28:05.875Z,2.52
2019-02-27T03:30:37.615Z,2.63
2019-02-27T03:33:30.618Z,3.02
2019-02-27T03:36:08.255Z,3.13
2019-02-27T03:38:42.417Z,3.27
2019-02-27T03:41:22.770Z,3.26
2019-02-27T03:43:59.025Z,3.28
2019-02-27T03:46:47.927Z,3.24
2019-02-27T03:49:40.695Z,3.35
2019-02-27T03:52:19.951Z,3.27
2019-02-27T03:55:12.779Z,3.01
2019-02-27T03:57:55.255Z,2.87
2019-02-27T04:00:29.339Z,2.49
2019-02-27T04:03:03.778Z,2.52
2019-02-27T04:06:10.067Z,2.75
2019-02-27T04:08:55.878Z,2.58
2019-02-27T04:11:24.417Z,2.49
2019-02-27T04:13:53.130Z,2.35
2019-02-27T04:16:21.598Z,2.40
2019-02-27T04:18:49.944Z,2.22
2019-02-27T04:21:24.958Z,2.15
2019-02-27T04:23:49.320Z,1.83
2019-02-27T04:26:19.376Z,1.74
2019-02-27T04:28:47.963Z,1.61
2019-02-27T04:31:16.349Z,1.91
2019-02-27T04:33:44.709Z,2.15
2019-02-27T04:36:13.484Z,2.05
2019-02-27T04:38:41.892Z,2.01
2019-02-27T04:41:10.421Z,1.78
2019-02-27T04:43:38.784Z,1.90
2019-02-27T04:46:07.254Z,2.06
2019-02-27T04:48:35.589Z,1.95
2019-02-27T04:51:04.043Z,1.71
2019-02-27T04:53:32.586Z,1.69
2019-02-27T04:56:00.965Z,1.77
2019-02-27T04:58:31.269Z,1.18
2019-02-27T05:00:59.828Z,1.25
2019-02-27T05:03:28.629Z,1.26
2019-02-27T05:05:57.128Z,1.50
2019-02-27T05:08:27.140Z,1.43
2019-02-27T05:10:55.641Z,1.47
2019-02-27T05:13:24.012Z,1.64
2019-02-27T05:15:52.430Z,1.68
2019-02-27T05:18:20.813Z,1.51
2019-02-27T05:20:49.184Z,1.56
2019-02-27T05:23:17.577Z,1.58
2019-02-27T05:25:45.933Z,1.58
2019-02-27T05:28:14.452Z,1.18
2019-02-27T05:30:45.155Z,1.36
2019-02-27T05:33:13.023Z,1.27
2019-02-27T05:35:41.604Z,1.39
2019-02-27T05:38:10.249Z,1.42
2019-02-27T05:40:38.670Z,1.38
2019-02-27T05:43:07.065Z,1.46
2019-02-27T05:45:35.431Z,1.37
2019-02-27T05:48:03.955Z,1.25
2019-02-27T05:50:34.249Z,1.04
2019-02-27T05:53:02.459Z,1.10
2019-02-27T05:55:30.882Z,1.08
2019-02-27T05:57:59.341Z,1.01
2019-02-27T06:00:27.915Z,0.96
2019-02-27T06:02:56.909Z,0.66
2019-02-27T06:05:25.422Z,0.82
2019-02-27T06:07:53.842Z,0.96
2019-02-27T06:10:23.600Z,0.90
2019-02-27T06:12:52.158Z,1.06
2019-02-27T06:15:20.518Z,1.41
2019-02-27T06:17:49.811Z,1.45
2019-02-27T06:20:18.390Z,1.46
2019-02-27T06:22:46.784Z,1.21
2019-02-27T06:25:21.663Z,1.20
2019-02-27T06:27:47.630Z,1.13
2019-02-27T06:30:18.703Z,1.20
2019-02-27T06:32:49.007Z,1.25
2019-02-27T06:35:17.610Z,1.12
2019-02-27T06:37:50.446Z,0.45
2019-02-27T06:40:18.502Z,0.31
2019-02-27T06:42:47.037Z,0.30
2019-02-27T06:45:19.005Z,0.61
2019-02-27T06:47:47.437Z,0.60
2019-02-27T06:50:16.870Z,0.71
2019-02-27T06:52:45.305Z,1.26
2019-02-27T06:55:14.949Z,1.28
2019-02-27T06:57:43.372Z,1.05
2019-02-27T07:00:22.970Z,1.05
2019-02-27T07:02:55.149Z,1.10
2019-02-27T07:05:21.521Z,1.09
2019-02-27T07:07:49.901Z,1.44
2019-02-27T07:10:19.992Z,1.59
2019-02-27T07:12:49.039Z,1.68
2019-02-27T07:15:19.271Z,1.66
2019-02-27T07:17:47.621Z,1.66
2019-02-27T07:20:16.760Z,1.80
2019-02-27T07:22:46.531Z,1.94
2019-02-27T07:25:16.533Z,2.01
2019-02-27T07:27:44.890Z,2.19
2019-02-27T07:30:15.418Z,2.36
2019-02-27T07:32:43.847Z,2.52
2019-02-27T07:35:13.371Z,2.48
2019-02-27T07:37:41.966Z,2.54
2019-02-27T07:40:12.807Z,2.50
2019-02-27T07:42:41.238Z,2.67
2019-02-27T07:45:12.960Z,2.78
2019-02-27T07:47:41.400Z,3.04
2019-02-27T07:50:12.641Z,3.18
2019-02-27T07:52:41.005Z,3.12
2019-02-27T07:55:21.031Z,3.29
2019-02-27T07:57:43.072Z,3.43
2019-02-27T08:00:19.510Z,3.62
2019-02-27T08:02:47.938Z,3.79
2019-02-27T08:05:16.434Z,3.90
2019-02-27T08:07:48.799Z,4.06
2019-02-27T08:10:17.780Z,4.15
2019-02-27T08:12:47.731Z,4.21
2019-02-27T08:15:17.941Z,4.37
2019-02-27T08:17:46.731Z,4.33
2019-02-27T08:20:20.096Z,4.46
2019-02-27T08:22:49.283Z,4.53
2019-02-27T08:25:18.911Z,4.65
2019-02-27T08:27:47.338Z,4.73
2019-02-27T08:30:23.543Z,4.88
2019-02-27T08:32:51.981Z,4.99
2019-02-27T08:35:20.448Z,5.03
2019-02-27T08:37:48.949Z,5.14
2019-02-27T08:40:17.366Z,5.24
2019-02-27T08:42:45.831Z,5.45
2019-02-27T08:45:26.787Z,5.51
2019-02-27T08:47:52.194Z,5.67
2019-02-27T08:50:21.805Z,5.87
2019-02-27T08:52:51.728Z,5.98
2019-02-27T08:55:23.137Z,6.01
2019-02-27T08:57:55.789Z,5.95
2019-02-27T09:00:23.515Z,6.02
2019-02-27T09:02:52.048Z,6.27
2019-02-27T09:05:20.940Z,6.41
2019-02-27T09:07:49.633Z,6.45
2019-02-27T09:10:26.726Z,6.51
2019-02-27T09:13:04.779Z,6.62
2019-02-27T09:15:25.783Z,6.72
2019-02-27T09:17:54.240Z,6.87
2019-02-27T09:20:22.687Z,7.04
2019-02-27T09:22:51.049Z,7.16
2019-02-27T09:25:23.625Z,7.34
2019-02-27T09:27:49.687Z,7.91
2019-02-27T09:30:21.900Z,7.95
2019-02-27T09:32:50.320Z,7.94
2019-02-27T09:35:18.965Z,8.06
2019-02-27T09:37:48.387Z,8.06
2019-02-27T09:40:26.591Z,8.09
2019-02-27T09:42:55.047Z,8.65
2019-02-27T09:45:31.738Z,8.98
2019-02-27T09:48:01.139Z,8.80
2019-02-27T09:50:37.883Z,8.75
2019-02-27T09:53:06.346Z,8.96
2019-02-27T09:55:34.796Z,8.98
2019-02-27T09:58:03.426Z,8.84
2019-02-27T10:00:42.731Z,8.83
2019-02-27T10:03:11.466Z,8.86
2019-02-27T10:05:40.782Z,9.06
2019-02-27T10:08:10.541Z,9.09
2019-02-27T10:10:44.966Z,9.27
2019-02-27T10:13:19.475Z,9.40
2019-02-27T10:15:51.398Z,9.64
2019-02-27T10:18:22.054Z,9.75
2019-02-27T10:20:50.601Z,10.07
2019-02-27T10:23:23.409Z,10.16
2019-02-27T10:25:53.242Z,10.53
2019-02-27T10:28:22.054Z,10.69
2019-02-27T10:30:50.871Z,10.92
2019-02-27T10:33:21.487Z,11.07
2019-02-27T10:35:50.255Z,10.81
2019-02-27T10:38:19.183Z,11.55
2019-02-27T10:40:47.908Z,11.73
2019-02-27T10:43:16.383Z,11.66
2019-02-27T10:45:49.359Z,11.27
2019-02-27T10:48:19.469Z,11.80
2019-02-27T10:50:48.729Z,11.47
2019-02-27T10:53:18.918Z,11.91
2019-02-27T10:55:49.171Z,11.82
2019-02-27T10:58:17.985Z,11.64
2019-02-27T11:00:49.737Z,11.99
2019-02-27T11:03:20.353Z,12.21
2019-02-27T11:05:52.361Z,12.32
2019-02-27T11:08:19.845Z,12.67
2019-02-27T11:10:48.621Z,12.67
2019-02-27T11:13:20.502Z,12.60
2019-02-27T11:15:48.889Z,12.78
2019-02-27T11:18:17.258Z,12.89
2019-02-27T11:20:45.725Z,13.24
2019-02-27T11:23:14.148Z,13.34
2019-02-27T11:25:42.609Z,13.79
2019-02-27T11:28:11.636Z,13.77
2019-02-27T11:30:41.762Z,13.84
2019-02-27T11:33:10.471Z,14.45
2019-02-27T11:35:38.963Z,15.15
2019-02-27T11:38:07.370Z,14.79
2019-02-27T11:40:41.757Z,14.44
2019-02-27T11:43:08.975Z,14.60
2019-02-27T11:45:37.559Z,14.50
2019-02-27T11:48:06.864Z,14.76
2019-02-27T11:50:36.707Z,14.51
2019-02-27T11:53:11.266Z,14.56
2019-02-27T11:55:42.064Z,15.10
2019-02-27T11:58:12.320Z,15.00
2019-02-27T12:00:41.176Z,14.86
2019-02-27T12:03:11.078Z,15.01
2019-02-27T12:05:41.430Z,15.21
2019-02-27T12:08:11.401Z,15.31
2019-02-27T12:10:40.069Z,15.30
2019-02-27T12:13:11.580Z,16.18
2019-02-27T12:15:43.632Z,15.81
2019-02-27T12:18:14.256Z,16.04
2019-02-27T12:20:44.902Z,15.87
2019-02-27T12:23:16.188Z,15.85
2019-02-27T12:25:45.502Z,16.17
2019-02-27T12:28:15.223Z,16.25
2019-02-27T12:30:44.847Z,16.44
2019-02-27T12:33:13.760Z,15.86
2019-02-27T12:35:44.913Z,15.95
2019-02-27T12:38:12.321Z,16.16
2019-02-27T12:40:40.656Z,15.83
2019-02-27T12:43:09.060Z,15.83
2019-02-27T12:45:37.407Z,16.14
2019-02-27T12:48:05.874Z,16.39
2019-02-27T12:50:34.808Z,16.46
2019-02-27T12:53:03.200Z,16.66
2019-02-27T12:55:35.443Z,16.52
2019-02-27T12:58:01.676Z,16.22
2019-02-27T13:00:31.274Z,16.73
2019-02-27T13:02:59.759Z,16.97
2019-02-27T13:05:28.975Z,17.20
2019-02-27T13:07:57.776Z,17.47
2019-02-27T13:10:27.291Z,17.61
2019-02-27T13:12:55.814Z,17.44
2019-02-27T13:15:27.981Z,17.71
2019-02-27T13:17:58.002Z,17.69
2019-02-27T13:20:29.745Z,17.96
2019-02-27T13:22:58.225Z,17.87
2019-02-27T13:25:26.642Z,17.89
2019-02-27T13:27:55.154Z,17.82
2019-02-27T13:30:25.686Z,17.76
2019-02-27T13:32:54.151Z,17.85
2019-02-27T13:35:23.238Z,17.82
2019-02-27T13:37:52.504Z,18.12
2019-02-27T13:40:25.636Z,18.18
2019-02-27T13:42:54.202Z,18.12
2019-02-27T13:45:25.861Z,18.04
2019-02-27T13:47:54.664Z,18.20
2019-02-27T13:50:26.482Z,18.47
2019-02-27T13:52:53.832Z,18.46
2019-02-27T13:55:23.322Z,18.26
2019-02-27T13:57:51.926Z,18.39
2019-02-27T14:00:35.365Z,18.51
2019-02-27T14:03:04.484Z,18.15
2019-02-27T14:05:35.970Z,18.29
2019-02-27T14:08:05.081Z,18.56
2019-02-27T14:10:34.187Z,18.51
2019-02-27T14:13:02.797Z,18.81
2019-02-27T14:15:32.025Z,19.07
2019-02-27T14:18:01.767Z,18.72
2019-02-27T14:20:31.180Z,18.30
2019-02-27T14:22:59.851Z,18.37
2019-02-27T14:25:32.940Z,18.23
2019-02-27T14:28:01.666Z,18.10
2019-02-27T14:30:48.163Z,18.49
2019-02-27T14:33:19.289Z,18.91
2019-02-27T14:35:50.645Z,18.80
2019-02-27T14:38:22.927Z,18.82
2019-02-27T14:40:52.169Z,19.18
2019-02-27T14:43:20.602Z,19.34
2019-02-27T14:45:50.717Z,19.59
2019-02-27T14:48:21.424Z,19.33
2019-02-27T14:50:49.462Z,18.90
2019-02-27T14:53:19.679Z,19.33
2019-02-27T14:55:48.062Z,19.47
2019-02-27T14:58:16.512Z,19.39
2019-02-27T15:00:44.991Z,19.65
2019-02-27T15:03:13.340Z,19.60
2019-02-27T15:05:44.983Z,19.48
2019-02-27T15:08:11.975Z,19.52
2019-02-27T15:10:41.284Z,19.74
2019-02-27T15:13:09.830Z,19.79
2019-02-27T15:15:43.249Z,19.75
2019-02-27T15:18:08.821Z,19.84
2019-02-27T15:20:40.175Z,19.99
2019-02-27T15:23:07.461Z,20.01
2019-02-27T15:25:35.852Z,20.01
2019-02-27T15:28:04.275Z,20.08
2019-02-27T15:30:33.531Z,20.03
2019-02-27T15:33:05.028Z,20.00
2019-02-27T15:35:32.674Z,20.20
2019-02-27T15:38:01.262Z,20.17
2019-02-27T15:40:31.297Z,20.23
2019-02-27T15:43:11.006Z,20.30
2019-02-27T15:45:32.932Z,20.37
2019-02-27T15:48:06.464Z,20.37
2019-02-27T15:50:38.117Z,20.30
2019-02-27T15:53:06.549Z,20.23
2019-02-27T15:55:37.891Z,20.33
2019-02-27T15:58:06.671Z,20.32
2019-02-27T16:00:35.156Z,20.27
2019-02-27T16:03:04.557Z,20.25
2019-02-27T16:05:36.771Z,20.06
2019-02-27T16:08:05.838Z,19.98
2019-02-27T16:10:35.217Z,20.02
2019-02-27T16:13:03.938Z,20.00
2019-02-27T16:15:34.065Z,19.79
2019-02-27T16:18:04.648Z,19.70
2019-02-27T16:20:33.456Z,19.60
2019-02-27T16:23:05.145Z,19.35
2019-02-27T16:25:32.954Z,19.46
2019-02-27T16:28:11.323Z,19.35
2019-02-27T16:30:41.311Z,19.27
2019-02-27T16:33:10.000Z,19.08
2019-02-27T16:35:41.380Z,19.10
2019-02-27T16:38:13.153Z,18.92
2019-02-27T16:40:43.496Z,18.74
2019-02-27T16:43:14.451Z,18.50
2019-02-27T16:45:46.236Z,18.20
2019-02-27T16:48:20.372Z,18.00
2019-02-27T16:50:49.187Z,17.76
2019-02-27T16:53:19.689Z,17.58
2019-02-27T16:55:53.429Z,17.50
2019-02-27T16:58:24.839Z,17.08
2019-02-27T17:00:55.247Z,16.90
2019-02-27T17:03:24.631Z,16.68
2019-02-27T17:05:56.505Z,16.18
2019-02-27T17:08:28.350Z,15.89
2019-02-27T17:10:57.070Z,15.63
2019-02-27T17:13:27.076Z,15.30
2019-02-27T17:15:56.126Z,15.15
2019-02-27T17:18:28.330Z,14.77
2019-02-27T17:20:57.229Z,14.76
2019-02-27T17:23:25.771Z,14.76
2019-02-27T17:25:55.269Z,14.37
2019-02-27T17:28:28.055Z,14.16
2019-02-27T17:30:58.256Z,13.88
2019-02-27T17:33:31.527Z,13.98
2019-02-27T17:36:00.288Z,13.79
2019-02-27T17:38:29.094Z,13.47
2019-02-27T17:40:58.060Z,13.31
2019-02-27T17:43:29.537Z,13.01
2019-02-27T17:45:57.964Z,12.96
2019-02-27T17:48:26.597Z,12.96
2019-02-27T17:50:55.337Z,12.74
2019-02-27T17:53:23.744Z,12.62
2019-02-27T17:55:53.708Z,12.45
2019-02-27T17:58:22.426Z,12.35
2019-02-27T18:01:04.598Z,12.26
2019-02-27T18:03:40.402Z,12.09
2019-02-27T18:06:06.379Z,12.01
2019-02-27T18:08:35.130Z,11.83
2019-02-27T18:11:03.670Z,11.64
2019-02-27T18:13:35.324Z,11.37
2019-02-27T18:16:03.624Z,11.30
2019-02-27T18:18:32.086Z,11.18
2019-02-27T18:23:55.269Z,11.02
2019-02-27T18:26:29.316Z,11.19
2019-02-27T18:28:59.805Z,11.07
2019-02-27T18:31:28.639Z,10.25
2019-02-27T18:34:01.295Z,9.94
2019-02-27T18:36:30.297Z,9.99
2019-02-27T18:39:02.493Z,9.88
2019-02-27T18:41:30.362Z,9.92
2019-02-27T18:44:01.190Z,10.17
2019-02-27T18:46:40.508Z,10.20
2019-02-27T18:49:15.255Z,10.32
2019-02-27T18:51:44.356Z,9.67
2019-02-27T18:54:14.326Z,9.70
2019-02-27T18:56:43.092Z,9.68
2019-02-27T18:59:11.732Z,9.63
2019-02-27T19:01:45.103Z,9.35
2019-02-27T19:04:13.361Z,9.19
2019-02-27T19:06:46.266Z,9.24
2019-02-27T19:09:15.109Z,9.27
2019-02-27T19:11:43.865Z,9.28
2019-02-27T19:14:12.293Z,9.09
2019-02-27T19:16:40.952Z,9.01
2019-02-27T19:19:09.981Z,9.06
2019-02-27T19:21:38.440Z,8.61
2019-02-27T19:24:06.868Z,7.93
2019-02-27T19:26:35.329Z,8.23
2019-02-27T19:29:04.312Z,8.50
2019-02-27T19:31:32.947Z,8.51
2019-02-27T19:34:01.316Z,8.47
2019-02-27T19:36:30.660Z,8.46
2019-02-27T19:38:59.809Z,8.41
2019-02-27T19:41:28.259Z,8.28
2019-02-27T19:43:56.690Z,8.19
2019-02-27T19:46:25.520Z,7.93
2019-02-27T19:48:54.115Z,7.87
2019-02-27T19:51:22.576Z,7.80
2019-02-27T19:53:51.153Z,7.83
2019-02-27T19:56:20.263Z,7.92
2019-02-27T19:58:51.120Z,8.04
2019-02-27T20:01:19.020Z,7.92
2019-02-27T20:03:47.553Z,8.00
2019-02-27T20:06:16.047Z,8.08
2019-02-27T20:08:45.582Z,7.99
2019-02-27T20:11:14.228Z,7.58
2019-02-27T20:13:44.468Z,7.38
2019-02-27T20:16:12.925Z,7.11
2019-02-27T20:18:43.729Z,7.03
2019-02-27T20:21:11.835Z,7.23
2019-02-27T20:23:40.188Z,7.35
2019-02-27T20:26:14.019Z,7.37
2019-02-27T20:28:39.134Z,7.12
2019-02-27T20:31:07.551Z,7.05
2019-02-27T20:33:37.323Z,7.08
2019-02-27T20:36:06.220Z,7.06
2019-02-27T20:38:35.278Z,6.93
2019-02-27T20:41:05.997Z,6.96
2019-02-27T20:43:34.058Z,7.08
2019-02-27T20:46:02.605Z,7.05
2019-02-27T20:48:32.235Z,6.77
2019-02-27T20:51:07.430Z,6.19
2019-02-27T20:53:35.815Z,6.14
2019-02-27T20:56:04.320Z,6.17
2019-02-27T20:58:33.187Z,6.46
2019-02-27T21:01:01.612Z,6.41
2019-02-27T21:03:30.011Z,6.39
2019-02-27T21:05:58.357Z,6.53
2019-02-27T21:08:26.741Z,6.56
2019-02-27T21:10:56.381Z,6.47
2019-02-27T21:13:24.952Z,6.44
2019-02-27T21:15:53.381Z,6.50
2019-02-27T21:18:21.767Z,6.27
2019-02-27T21:20:50.955Z,6.19
2019-02-27T21:23:19.449Z,6.36
2019-02-27T21:25:49.290Z,6.15
2019-02-27T21:28:20.971Z,5.97
2019-02-27T21:30:51.888Z,5.69
2019-02-27T21:33:18.246Z,5.85
2019-02-27T21:35:46.603Z,5.85
2019-02-27T21:38:16.700Z,5.78
2019-02-27T21:40:45.221Z,5.71
2019-02-27T21:43:13.844Z,5.66
2019-02-27T21:45:42.207Z,5.97
2019-02-27T21:48:10.799Z,5.76
2019-02-27T21:50:40.009Z,5.66
2019-02-27T21:53:09.390Z,5.65
2019-02-27T21:55:38.246Z,5.60
2019-02-27T21:58:19.769Z,5.51
2019-02-27T22:00:39.654Z,5.48
2019-02-27T22:03:08.497Z,5.43
2019-02-27T22:05:42.696Z,5.59
2019-02-27T22:08:13.339Z,5.59
2019-02-27T22:10:42.036Z,5.83
2019-02-27T22:13:10.926Z,5.48
2019-02-27T22:15:39.608Z,5.33
2019-02-27T22:18:11.319Z,5.34
2019-02-27T22:20:38.882Z,5.17
2019-02-27T22:23:07.589Z,5.13
2019-02-27T22:25:36.276Z,4.69
2019-02-27T22:28:04.762Z,4.52
2019-02-27T22:30:33.279Z,4.55
2019-02-27T22:33:01.792Z,4.66
2019-02-27T22:35:37.325Z,4.61
2019-02-27T22:38:01.888Z,4.65
2019-02-27T22:40:30.348Z,4.91
2019-02-27T22:43:00.012Z,4.78
2019-02-27T22:45:28.713Z,4.63
2019-02-27T22:47:57.727Z,4.46
2019-02-27T22:50:26.511Z,4.47
2019-02-27T22:52:55.434Z,4.43
2019-02-27T22:55:24.639Z,4.28
2019-02-27T22:57:54.876Z,4.09
2019-02-27T23:00:56.621Z,4.09
2019-02-27T23:03:31.125Z,3.97
2019-02-27T23:05:59.822Z,4.18
2019-02-27T23:08:29.259Z,4.17
2019-02-27T23:10:58.045Z,4.35
2019-02-27T23:13:26.469Z,4.29
2019-02-27T23:15:58.868Z,4.46
2019-02-27T23:18:26.608Z,4.31
2019-02-27T23:20:56.160Z,4.34
2019-02-27T23:23:25.737Z,4.26
2019-02-27T23:25:54.792Z,4.01
2019-02-27T23:28:23.300Z,4.04
2019-02-27T23:30:51.771Z,4.06
2019-02-27T23:33:24.582Z,4.07
2019-02-27T23:35:53.115Z,4.14
2019-02-27T23:38:21.833Z,3.96
2019-02-27T23:40:50.528Z,4.06
2019-02-27T23:43:19.797Z,3.98
2019-02-27T23:45:48.454Z,3.86
2019-02-27T23:48:17.151Z,3.81
2019-02-27T23:50:46.188Z,3.74
2019-02-27T23:53:17.427Z,3.83
2019-02-27T23:55:46.396Z,3.88
2019-02-27T23:58:14.886Z,3.80
